createdAt,value
2023-04-06T00:00:55.995Z,96721.56
2023-04-06T00:03:22.895Z,96725.78
2023-04-06T00:05:49.818Z,96719.94
2023-04-06T00:08:16.775Z,96717.34
2023-04-06T00:10:43.648Z,96717.34
2023-04-06T00:13:10.950Z,96717.06
2023-04-06T00:15:37.777Z,96714.06
2023-04-06T00:18:04.828Z,96712.66
2023-04-06T00:20:31.797Z,96720.59
2023-04-06T00:22:58.720Z,96718.91
2023-04-06T00:25:25.575Z,96719.59
2023-04-06T00:27:52.520Z,96716.19
2023-04-06T00:30:19.673Z,96720.13
2023-04-06T00:32:46.541Z,96725.19
2023-04-06T00:35:13.442Z,96715.94
2023-04-06T00:37:40.381Z,96718.38
2023-04-06T00:40:08.228Z,96722.78
2023-04-06T00:42:35.303Z,96718.41
2023-04-06T00:45:03.114Z,96712.66
2023-04-06T00:47:30.035Z,96719.50
2023-04-06T00:49:57.576Z,96713.66
2023-04-06T00:52:24.448Z,96719.34
2023-04-06T00:54:51.881Z,96715.25
2023-04-06T00:57:19.610Z,96713.47
2023-04-06T00:59:46.927Z,96722.41
2023-04-06T01:02:13.954Z,96719.09
2023-04-06T01:04:41.341Z,96717.22
2023-04-06T01:07:08.204Z,96718.81
2023-04-06T01:09:35.094Z,96718.22
2023-04-06T01:12:02.067Z,96718.75
2023-04-06T01:14:29.171Z,96721.78
2023-04-06T01:16:59.421Z,96716.00
2023-04-06T01:19:26.493Z,96715.50
2023-04-06T01:21:54.291Z,96714.97
2023-04-06T01:24:21.812Z,96715.50
2023-04-06T01:26:49.204Z,96715.50
2023-04-06T01:29:16.208Z,96718.31
2023-04-06T01:31:43.104Z,96703.72
2023-04-06T01:34:09.973Z,96711.06
2023-04-06T01:36:36.784Z,96704.53
2023-04-06T01:39:03.759Z,96708.06
2023-04-06T01:41:30.687Z,96701.22
2023-04-06T01:43:57.666Z,96702.88
2023-04-06T01:46:24.534Z,96695.53
2023-04-06T01:48:51.799Z,96694.28
2023-04-06T01:51:18.635Z,96697.28
2023-04-06T01:53:45.580Z,96697.69
2023-04-06T01:56:12.481Z,96696.31
2023-04-06T01:58:39.320Z,96690.56
2023-04-06T02:01:06.286Z,96686.75
2023-04-06T02:03:33.119Z,96690.03
2023-04-06T02:06:00.010Z,96696.84
2023-04-06T02:08:26.852Z,96688.78
2023-04-06T02:10:53.885Z,96691.59
2023-04-06T02:13:20.798Z,96688.25
2023-04-06T02:15:47.649Z,96688.50
2023-04-06T02:18:14.503Z,96689.84
2023-04-06T02:20:41.548Z,96689.84
2023-04-06T02:23:08.342Z,96699.44
2023-04-06T02:25:35.802Z,96688.50
2023-04-06T02:28:02.822Z,96681.25
2023-04-06T02:30:30.318Z,96687.38
2023-04-06T02:32:57.158Z,96690.72
2023-04-06T02:35:26.032Z,96693.88
2023-04-06T02:37:52.859Z,96686.25
2023-04-06T02:40:19.685Z,96683.72
2023-04-06T02:42:46.613Z,96691.28
2023-04-06T02:45:13.446Z,96688.56
2023-04-06T02:47:40.307Z,96681.88
2023-04-06T02:50:07.474Z,96689.38
2023-04-06T02:52:34.393Z,96679.03
2023-04-06T02:55:01.289Z,96684.91
2023-04-06T02:57:28.085Z,96683.72
2023-04-06T02:59:54.924Z,96681.13
2023-04-06T03:02:21.817Z,96683.47
2023-04-06T03:04:48.708Z,96676.66
2023-04-06T03:07:15.532Z,96675.00
2023-04-06T03:09:43.265Z,96675.28
2023-04-06T03:12:10.489Z,96692.41
2023-04-06T03:14:37.371Z,96684.22
2023-04-06T03:17:04.168Z,96689.06
2023-04-06T03:19:31.000Z,96680.16
2023-04-06T03:21:57.886Z,96688.72
2023-04-06T03:24:24.772Z,96684.16
2023-04-06T03:26:51.552Z,96681.69
2023-04-06T03:29:18.421Z,96678.41
2023-04-06T03:31:45.386Z,96678.66
2023-04-06T03:34:12.254Z,96683.00
2023-04-06T03:36:39.214Z,96685.00
2023-04-06T03:39:06.724Z,96689.22
2023-04-06T03:41:33.798Z,96695.47
2023-04-06T03:44:00.683Z,96696.53
2023-04-06T03:46:27.770Z,96693.25
2023-04-06T03:48:54.695Z,96689.50
2023-04-06T03:51:21.761Z,96688.53
2023-04-06T03:53:48.671Z,96706.88
2023-04-06T03:56:15.643Z,96706.63
2023-04-06T03:58:42.523Z,96701.22
2023-04-06T04:01:09.331Z,96701.47
2023-04-06T04:03:36.357Z,96708.03
2023-04-06T04:06:03.411Z,96706.25
2023-04-06T04:08:30.257Z,96708.13
2023-04-06T04:10:57.033Z,96704.72
2023-04-06T04:13:23.881Z,96707.44
2023-04-06T04:15:50.853Z,96707.44
2023-04-06T04:18:17.734Z,96716.34
2023-04-06T04:20:44.536Z,96712.91
2023-04-06T04:23:11.572Z,96712.69
2023-04-06T04:25:38.379Z,96721.31
2023-04-06T04:28:05.558Z,96717.19
2023-04-06T04:30:32.515Z,96720.97
2023-04-06T04:32:59.436Z,96714.16
2023-04-06T04:35:26.336Z,96725.00
2023-04-06T04:37:53.217Z,96718.75
2023-04-06T04:40:20.162Z,96717.44
2023-04-06T04:42:47.411Z,96716.63
2023-04-06T04:45:14.499Z,96720.50
2023-04-06T04:47:41.487Z,96713.91
2023-04-06T04:50:08.822Z,96724.00
2023-04-06T04:52:35.883Z,96728.91
2023-04-06T04:55:02.935Z,96725.88
2023-04-06T04:57:29.845Z,96729.19
2023-04-06T04:59:58.070Z,96731.72
2023-04-06T05:02:25.205Z,96724.63
2023-04-06T05:04:52.153Z,96732.47
2023-04-06T05:07:19.745Z,96730.88
2023-04-06T05:09:46.621Z,96724.53
2023-04-06T05:12:13.625Z,96719.41
2023-04-06T05:14:40.754Z,96734.66
2023-04-06T05:17:07.616Z,96735.63
2023-04-06T05:19:34.518Z,96736.81
2023-04-06T05:22:01.352Z,96733.06
2023-04-06T05:24:28.206Z,96733.34
2023-04-06T05:26:55.478Z,96728.47
2023-04-06T05:29:22.576Z,96731.00
2023-04-06T05:31:49.610Z,96733.75
2023-04-06T05:34:16.797Z,96739.25
2023-04-06T05:36:43.576Z,96742.06
2023-04-06T05:39:10.705Z,96731.78
2023-04-06T05:41:37.851Z,96729.06
2023-04-06T05:44:04.719Z,96726.41
2023-04-06T05:46:32.653Z,96732.44
2023-04-06T05:48:59.500Z,96727.28
2023-04-06T05:51:27.779Z,96726.97
2023-04-06T05:53:54.675Z,96724.78
2023-04-06T05:56:21.544Z,96729.84
2023-04-06T05:58:48.410Z,96733.78
2023-04-06T06:01:16.686Z,96732.59
2023-04-06T06:03:43.506Z,96739.88
2023-04-06T06:06:10.383Z,96733.41
2023-04-06T06:08:37.185Z,96739.09
2023-04-06T06:11:04.328Z,96740.00
2023-04-06T06:13:31.139Z,96742.53
2023-04-06T06:15:58.314Z,96742.09
2023-04-06T06:18:25.276Z,96738.03
2023-04-06T06:20:52.164Z,96736.41
2023-04-06T06:23:18.971Z,96739.38
2023-04-06T06:25:45.965Z,96736.53
2023-04-06T06:28:12.900Z,96745.44
2023-04-06T06:30:39.717Z,96735.88
2023-04-06T06:33:06.990Z,96738.22
2023-04-06T06:35:33.857Z,96737.03
2023-04-06T06:38:00.902Z,96737.38
2023-04-06T06:40:27.967Z,96742.44
2023-04-06T06:42:54.951Z,96732.16
2023-04-06T06:45:22.121Z,96737.06
2023-04-06T06:47:49.355Z,96744.91
2023-04-06T06:50:16.348Z,96746.03
2023-04-06T06:52:43.641Z,96745.50
2023-04-06T06:55:11.923Z,96743.34
2023-04-06T06:57:39.353Z,96742.50
2023-04-06T07:00:08.404Z,96754.88
2023-04-06T07:02:36.808Z,96748.88
2023-04-06T07:05:10.165Z,96741.53
2023-04-06T07:07:43.432Z,96745.53
2023-04-06T07:10:11.665Z,96755.44
2023-04-06T07:12:38.570Z,96752.16
2023-04-06T07:15:06.382Z,96748.63
2023-04-06T07:17:33.597Z,96750.78
2023-04-06T07:20:00.481Z,96749.88
2023-04-06T07:22:27.361Z,96755.03
2023-04-06T07:24:54.266Z,96746.28
2023-04-06T07:27:21.204Z,96747.25
2023-04-06T07:29:48.345Z,96747.44
2023-04-06T07:32:15.703Z,96751.38
2023-04-06T07:34:42.726Z,96756.59
2023-04-06T07:37:09.561Z,96758.41
2023-04-06T07:39:36.392Z,96764.19
2023-04-06T07:42:03.199Z,96759.91
2023-04-06T07:44:30.121Z,96754.09
2023-04-06T07:46:57.259Z,96754.97
2023-04-06T07:49:24.180Z,96759.72
2023-04-06T07:51:51.040Z,96752.34
2023-04-06T07:54:17.901Z,96744.63
2023-04-06T07:56:44.717Z,96745.97
2023-04-06T07:59:12.434Z,96749.00
2023-04-06T08:01:39.381Z,96746.06
2023-04-06T08:04:06.671Z,96746.19
2023-04-06T08:06:33.800Z,96740.50
2023-04-06T08:09:00.568Z,96752.56
2023-04-06T08:11:27.795Z,96748.59
2023-04-06T08:13:57.666Z,96742.91
2023-04-06T08:16:25.540Z,96750.03
2023-04-06T08:18:52.355Z,96747.66
2023-04-06T08:21:19.825Z,96741.13
2023-04-06T08:23:47.199Z,96752.06
2023-04-06T08:26:14.067Z,96747.72
2023-04-06T08:28:40.903Z,96748.09
2023-04-06T08:31:07.944Z,96750.53
2023-04-06T08:33:39.985Z,96757.31
2023-04-06T08:36:14.942Z,96752.56
2023-04-06T08:38:43.766Z,96757.16
2023-04-06T08:41:14.908Z,96751.16
2023-04-06T08:43:49.717Z,96756.59
2023-04-06T08:46:17.010Z,96751.22
2023-04-06T08:48:44.647Z,96746.13
2023-04-06T08:51:11.923Z,96758.00
2023-04-06T08:53:39.509Z,96756.13
2023-04-06T08:56:07.039Z,96756.41
2023-04-06T08:58:39.075Z,96751.56
2023-04-06T09:01:15.007Z,96746.44
2023-04-06T09:03:42.566Z,96759.03
2023-04-06T09:06:10.507Z,96750.41
2023-04-06T09:08:41.042Z,96751.56
2023-04-06T09:11:08.954Z,96749.59
2023-04-06T09:13:53.762Z,96753.53
2023-04-06T09:16:21.942Z,96744.66
2023-04-06T09:18:49.940Z,96747.06
2023-04-06T09:21:23.562Z,96740.47
2023-04-06T09:24:02.873Z,96738.56
2023-04-06T09:26:30.115Z,96737.03
2023-04-06T09:29:02.127Z,96741.09
2023-04-06T09:31:33.758Z,96725.59
2023-04-06T09:34:01.569Z,96730.50
2023-04-06T09:36:36.853Z,96741.50
2023-04-06T09:39:05.714Z,96743.19
2023-04-06T09:41:35.005Z,96746.41
2023-04-06T09:44:09.543Z,96736.94
2023-04-06T09:46:57.724Z,96738.94
2023-04-06T09:49:29.294Z,96727.22
2023-04-06T09:52:03.783Z,96729.78
2023-04-06T09:54:32.535Z,96728.25
2023-04-06T09:57:11.298Z,96727.38
2023-04-06T10:00:08.925Z,96730.72
2023-04-06T10:03:12.614Z,96728.19
2023-04-06T10:05:48.066Z,96727.25
2023-04-06T10:08:16.355Z,96731.19
2023-04-06T10:10:43.617Z,96726.47
2023-04-06T10:13:12.357Z,96717.03
2023-04-06T10:15:43.560Z,96715.28
2023-04-06T10:18:10.570Z,96715.91
2023-04-06T10:21:03.081Z,96713.44
2023-04-06T10:23:52.134Z,96724.56
2023-04-06T10:26:22.358Z,96706.16
2023-04-06T10:28:50.932Z,96709.91
2023-04-06T10:31:28.441Z,96705.22
2023-04-06T10:34:01.545Z,96703.31
2023-04-06T10:36:33.273Z,96701.88
2023-04-06T10:39:03.661Z,96702.03
2023-04-06T10:41:48.777Z,96697.88
2023-04-06T10:44:22.719Z,96699.19
2023-04-06T10:47:03.907Z,96705.25
2023-04-06T10:49:31.001Z,96701.13
2023-04-06T10:51:58.410Z,96685.50
2023-04-06T10:54:27.310Z,96690.63
2023-04-06T10:56:54.257Z,96691.59
2023-04-06T10:59:23.109Z,96683.22
2023-04-06T11:01:50.587Z,96684.00
2023-04-06T11:04:19.317Z,96681.72
2023-04-06T11:06:51.172Z,96675.41
2023-04-06T11:09:29.124Z,96676.88
2023-04-06T11:11:56.968Z,96674.66
2023-04-06T11:14:24.014Z,96676.53
2023-04-06T11:16:51.297Z,96672.69
2023-04-06T11:19:18.822Z,96658.50
2023-04-06T11:21:49.191Z,96660.56
2023-04-06T11:24:23.476Z,96666.38
2023-04-06T11:26:58.597Z,96657.69
2023-04-06T11:29:32.473Z,96654.53
2023-04-06T11:32:04.966Z,96656.28
2023-04-06T11:34:38.177Z,96653.00
2023-04-06T11:37:10.880Z,96653.53
2023-04-06T11:39:47.889Z,96651.06
2023-04-06T11:42:22.352Z,96653.03
2023-04-06T11:44:54.276Z,96647.50
2023-04-06T11:47:28.548Z,96638.81
2023-04-06T11:49:55.632Z,96642.66
2023-04-06T11:52:26.994Z,96632.34
2023-04-06T11:54:55.269Z,96634.63
2023-04-06T11:57:26.615Z,96626.59
2023-04-06T11:59:53.696Z,96632.38
2023-04-06T12:02:20.839Z,96636.63
2023-04-06T12:04:47.805Z,96630.00
2023-04-06T12:07:14.820Z,96636.06
2023-04-06T12:09:42.395Z,96631.88
2023-04-06T12:12:09.261Z,96625.84
2023-04-06T12:14:36.120Z,96618.84
2023-04-06T12:17:03.039Z,96615.28
2023-04-06T12:19:31.001Z,96619.25
2023-04-06T12:21:58.578Z,96618.16
2023-04-06T12:24:25.905Z,96613.41
2023-04-06T12:26:59.576Z,96614.31
2023-04-06T12:29:30.248Z,96610.38
2023-04-06T12:31:57.265Z,96603.06
2023-04-06T12:34:24.248Z,96597.16
2023-04-06T12:36:51.209Z,96599.53
2023-04-06T12:39:21.639Z,96597.09
2023-04-06T12:41:48.705Z,96593.41
2023-04-06T12:44:15.644Z,96598.31
2023-04-06T12:46:44.222Z,96580.16
2023-04-06T12:49:11.223Z,96580.81
2023-04-06T12:51:38.093Z,96580.81
2023-04-06T12:54:05.001Z,96591.50
2023-04-06T12:56:32.080Z,96575.97
2023-04-06T12:58:59.041Z,96571.72
2023-04-06T13:01:27.622Z,96569.34
2023-04-06T13:03:54.555Z,96579.22
2023-04-06T13:06:21.458Z,96572.19
2023-04-06T13:08:50.899Z,96574.75
2023-04-06T13:11:18.204Z,96562.31
2023-04-06T13:13:45.249Z,96572.13
2023-04-06T13:16:12.146Z,96550.94
2023-04-06T13:18:39.870Z,96540.94
2023-04-06T13:21:08.526Z,96554.97
2023-04-06T13:23:36.352Z,96552.41
2023-04-06T13:26:06.320Z,96556.41
2023-04-06T13:28:34.901Z,96561.34
2023-04-06T13:31:03.306Z,96544.75
2023-04-06T13:33:31.007Z,96552.50
2023-04-06T13:35:59.749Z,96552.75
2023-04-06T13:38:26.865Z,96541.31
2023-04-06T13:40:53.908Z,96545.31
2023-04-06T13:43:21.327Z,96553.16
2023-04-06T13:45:57.072Z,96539.38
2023-04-06T13:48:24.061Z,96542.38
2023-04-06T13:50:51.358Z,96530.50
2023-04-06T13:53:18.753Z,96535.41
2023-04-06T13:55:54.779Z,96529.53
2023-04-06T13:58:21.774Z,96529.75
2023-04-06T14:00:48.809Z,96533.66
2023-04-06T14:03:15.914Z,96535.78
2023-04-06T14:05:42.833Z,96534.53
2023-04-06T14:08:09.613Z,96528.72
2023-04-06T14:10:41.367Z,96526.16
2023-04-06T14:13:08.530Z,96508.66
2023-04-06T14:15:36.281Z,96520.34
2023-04-06T14:18:03.504Z,96514.06
2023-04-06T14:20:33.569Z,96513.03
2023-04-06T14:23:04.367Z,96505.34
2023-04-06T14:25:32.843Z,96514.50
2023-04-06T14:27:59.790Z,96519.50
2023-04-06T14:30:26.676Z,96510.59
2023-04-06T14:32:53.921Z,96514.88
2023-04-06T14:35:20.749Z,96511.72
2023-04-06T14:37:48.097Z,96503.97
2023-04-06T14:40:15.034Z,96510.19
2023-04-06T14:42:42.162Z,96507.75
2023-04-06T14:45:09.337Z,96498.56
2023-04-06T14:47:36.363Z,96502.78
2023-04-06T14:50:03.375Z,96496.75
2023-04-06T14:52:32.580Z,96488.97
2023-04-06T14:54:59.823Z,96490.56
2023-04-06T14:57:26.648Z,96490.41
2023-04-06T14:59:55.317Z,96486.59
2023-04-06T15:02:22.318Z,96486.19
2023-04-06T15:04:49.247Z,96479.69
2023-04-06T15:07:16.096Z,96481.16
2023-04-06T15:09:42.968Z,96486.38
2023-04-06T15:12:09.810Z,96483.50
2023-04-06T15:14:36.620Z,96483.41
2023-04-06T15:17:03.447Z,96497.47
2023-04-06T15:19:30.249Z,96493.53
2023-04-06T15:21:58.148Z,96495.47
2023-04-06T15:24:26.404Z,96491.81
2023-04-06T15:26:53.238Z,96489.44
2023-04-06T15:29:20.082Z,96481.88
2023-04-06T15:31:46.989Z,96487.84
2023-04-06T15:34:13.787Z,96477.72
2023-04-06T15:36:40.725Z,96475.72
2023-04-06T15:39:09.789Z,96482.59
2023-04-06T15:41:37.139Z,96491.19
2023-04-06T15:44:04.702Z,96486.03
2023-04-06T15:46:31.585Z,96488.13
2023-04-06T15:48:58.486Z,96490.44
2023-04-06T15:51:26.222Z,96484.31
2023-04-06T15:53:53.100Z,96484.69
2023-04-06T15:56:19.999Z,96485.00
2023-04-06T15:58:47.524Z,96490.00
2023-04-06T16:01:17.538Z,96481.03
2023-04-06T16:03:45.291Z,96486.16
2023-04-06T16:06:13.120Z,96488.31
2023-04-06T16:08:41.107Z,96485.81
2023-04-06T16:11:08.789Z,96484.38
2023-04-06T16:13:36.725Z,96487.72
2023-04-06T16:16:04.711Z,96478.72
2023-04-06T16:18:33.085Z,96488.44
2023-04-06T16:21:01.086Z,96482.63
2023-04-06T16:23:28.206Z,96485.56
2023-04-06T16:25:57.611Z,96491.91
2023-04-06T16:28:25.492Z,96493.25
2023-04-06T16:30:52.926Z,96495.84
2023-04-06T16:33:19.930Z,96497.16
2023-04-06T16:35:47.587Z,96487.22
2023-04-06T16:38:15.350Z,96499.38
2023-04-06T16:40:42.384Z,96492.63
2023-04-06T16:43:10.002Z,96497.63
2023-04-06T16:45:38.324Z,96492.44
2023-04-06T16:48:06.102Z,96491.63
2023-04-06T16:50:33.098Z,96491.69
2023-04-06T16:53:00.185Z,96489.59
2023-04-06T16:55:26.999Z,96501.56
2023-04-06T16:57:56.884Z,96499.63
2023-04-06T17:00:24.046Z,96501.84
2023-04-06T17:02:51.127Z,96494.50
2023-04-06T17:05:24.407Z,96502.56
2023-04-06T17:07:51.280Z,96490.44
2023-04-06T17:10:21.440Z,96496.09
2023-04-06T17:12:55.686Z,96506.56
2023-04-06T17:15:24.820Z,96500.50
2023-04-06T17:17:52.141Z,96502.63
2023-04-06T17:20:19.787Z,96507.06
2023-04-06T17:22:47.291Z,96503.69
2023-04-06T17:25:14.900Z,96510.53
2023-04-06T17:27:41.780Z,96506.56
2023-04-06T17:30:13.214Z,96517.56
2023-04-06T17:32:41.475Z,96516.19
2023-04-06T17:35:11.098Z,96513.16
2023-04-06T17:37:38.952Z,96519.25
2023-04-06T17:40:07.432Z,96512.75
2023-04-06T17:42:34.270Z,96507.47
2023-04-06T17:45:01.086Z,96507.44
2023-04-06T17:47:32.090Z,96513.09
2023-04-06T17:49:59.932Z,96515.06
2023-04-06T17:52:28.095Z,96511.53
2023-04-06T17:54:56.286Z,96517.16
2023-04-06T17:57:23.386Z,96518.28
2023-04-06T17:59:50.347Z,96520.88
2023-04-06T18:02:17.303Z,96518.00
2023-04-06T18:04:44.518Z,96524.03
2023-04-06T18:07:11.582Z,96520.34
2023-04-06T18:09:39.844Z,96526.88
2023-04-06T18:12:06.918Z,96523.66
2023-04-06T18:14:33.720Z,96536.53
2023-04-06T18:17:00.503Z,96525.53
2023-04-06T18:19:28.805Z,96524.69
2023-04-06T18:21:55.933Z,96533.56
2023-04-06T18:24:32.120Z,96537.94
2023-04-06T18:27:05.139Z,96536.59
2023-04-06T18:29:32.040Z,96533.38
2023-04-06T18:31:58.885Z,96541.19
2023-04-06T18:34:25.701Z,96543.72
2023-04-06T18:36:52.681Z,96544.09
2023-04-06T18:39:19.576Z,96540.78
2023-04-06T18:41:46.376Z,96542.78
2023-04-06T18:44:13.243Z,96537.81
2023-04-06T18:46:40.416Z,96546.25
2023-04-06T18:49:07.279Z,96546.63
2023-04-06T18:51:34.380Z,96546.72
2023-04-06T18:54:02.353Z,96551.31
2023-04-06T18:56:29.340Z,96556.88
2023-04-06T18:58:56.498Z,96558.94
2023-04-06T19:01:27.569Z,96562.66
2023-04-06T19:03:56.031Z,96560.56
2023-04-06T19:06:24.181Z,96563.09
2023-04-06T19:08:51.224Z,96569.38
2023-04-06T19:11:18.625Z,96562.63
2023-04-06T19:13:49.856Z,96566.28
2023-04-06T19:16:18.163Z,96564.00
2023-04-06T19:18:45.608Z,96566.56
2023-04-06T19:21:21.050Z,96577.28
2023-04-06T19:23:51.181Z,96573.56
2023-04-06T19:26:19.413Z,96570.78
2023-04-06T19:28:47.037Z,96570.84
2023-04-06T19:31:16.589Z,96571.66
2023-04-06T19:33:44.622Z,96567.88
2023-04-06T19:36:11.739Z,96574.00
2023-04-06T19:38:39.702Z,96568.75
2023-04-06T19:41:06.508Z,96565.97
2023-04-06T19:43:33.453Z,96568.59
2023-04-06T19:46:00.510Z,96575.66
2023-04-06T19:48:27.353Z,96570.63
2023-04-06T19:50:55.004Z,96580.63
2023-04-06T19:53:22.867Z,96576.41
2023-04-06T19:55:50.352Z,96574.78
2023-04-06T19:58:18.277Z,96580.00
2023-04-06T20:00:45.226Z,96583.59
2023-04-06T20:03:12.343Z,96576.09
2023-04-06T20:05:39.908Z,96582.09
2023-04-06T20:08:06.873Z,96579.31
2023-04-06T20:10:33.733Z,96580.00
2023-04-06T20:13:01.472Z,96589.16
2023-04-06T20:15:29.586Z,96592.13
2023-04-06T20:17:56.814Z,96577.75
2023-04-06T20:20:23.717Z,96574.16
2023-04-06T20:22:50.599Z,96575.13
2023-04-06T20:25:18.497Z,96582.59
2023-04-06T20:27:45.753Z,96574.09
2023-04-06T20:30:16.687Z,96586.53
2023-04-06T20:32:43.908Z,96577.06
2023-04-06T20:35:11.055Z,96572.84
2023-04-06T20:37:38.648Z,96572.50
2023-04-06T20:40:06.588Z,96580.50
2023-04-06T20:42:34.253Z,96573.34
2023-04-06T20:45:02.647Z,96569.25
2023-04-06T20:47:29.733Z,96573.84
2023-04-06T20:49:56.617Z,96564.69
2023-04-06T20:52:23.697Z,96565.66
2023-04-06T20:54:51.006Z,96570.88
2023-04-06T20:57:18.147Z,96580.03
2023-04-06T20:59:47.595Z,96562.25
2023-04-06T21:02:14.518Z,96562.44
2023-04-06T21:04:44.315Z,96562.72
2023-04-06T21:07:11.564Z,96559.16
2023-04-06T21:09:40.864Z,96561.09
2023-04-06T21:12:08.332Z,96561.41
2023-04-06T21:14:35.359Z,96568.63
2023-04-06T21:17:02.414Z,96560.66
2023-04-06T21:19:29.317Z,96557.22
2023-04-06T21:21:56.390Z,96555.88
2023-04-06T21:24:23.369Z,96559.00
2023-04-06T21:26:50.379Z,96548.88
2023-04-06T21:29:17.362Z,96552.16
2023-04-06T21:31:44.302Z,96555.56
2023-04-06T21:34:14.763Z,96550.69
2023-04-06T21:36:42.411Z,96542.53
2023-04-06T21:39:10.332Z,96551.38
2023-04-06T21:41:37.387Z,96542.69
2023-04-06T21:44:04.348Z,96546.47
2023-04-06T21:46:31.309Z,96542.56
2023-04-06T21:48:58.406Z,96544.19
2023-04-06T21:51:25.394Z,96535.91
2023-04-06T21:53:53.763Z,96542.25
2023-04-06T21:56:22.883Z,96538.97
2023-04-06T21:58:50.884Z,96524.16
2023-04-06T22:01:18.462Z,96532.78
2023-04-06T22:03:46.511Z,96548.25
2023-04-06T22:06:13.809Z,96542.88
2023-04-06T22:08:40.921Z,96545.16
2023-04-06T22:11:11.689Z,96540.94
2023-04-06T22:13:39.203Z,96541.56
2023-04-06T22:16:07.457Z,96544.81
2023-04-06T22:18:37.285Z,96536.69
2023-04-06T22:21:05.829Z,96545.47
2023-04-06T22:23:33.100Z,96537.63
2023-04-06T22:26:00.108Z,96529.81
2023-04-06T22:28:27.275Z,96533.41
2023-04-06T22:30:54.163Z,96532.41
2023-04-06T22:33:21.563Z,96527.19
2023-04-06T22:35:48.462Z,96524.44
2023-04-06T22:38:15.353Z,96520.34
2023-04-06T22:40:42.276Z,96528.19
2023-04-06T22:43:09.733Z,96522.00
2023-04-06T22:45:36.548Z,96517.44
2023-04-06T22:48:03.614Z,96511.25
2023-04-06T22:50:30.516Z,96513.03
2023-04-06T22:52:57.421Z,96521.50
2023-04-06T22:55:24.431Z,96524.28
2023-04-06T22:57:51.567Z,96519.00
2023-04-06T23:00:18.682Z,96523.91
2023-04-06T23:02:45.984Z,96508.91
2023-04-06T23:05:12.972Z,96525.53
2023-04-06T23:07:39.837Z,96511.88
2023-04-06T23:10:07.760Z,96496.22
2023-04-06T23:13:13.273Z,96516.44
2023-04-06T23:15:40.149Z,96511.56
2023-04-06T23:18:07.341Z,96514.16
2023-04-06T23:20:34.547Z,96509.44
2023-04-06T23:23:01.433Z,96505.81
2023-04-06T23:25:28.231Z,96502.25
2023-04-06T23:27:55.236Z,96502.25
2023-04-06T23:30:22.102Z,96481.88
2023-04-06T23:32:48.993Z,96478.97
2023-04-06T23:35:15.821Z,96484.84
2023-04-06T23:37:42.671Z,96505.69
2023-04-06T23:40:09.864Z,96498.53
2023-04-06T23:42:36.758Z,96503.22
2023-04-06T23:45:07.329Z,96496.22
2023-04-06T23:47:34.225Z,96500.28
2023-04-06T23:50:01.150Z,96494.44
2023-04-06T23:52:29.677Z,96496.22
2023-04-06T23:54:56.449Z,96489.88
2023-04-06T23:57:23.256Z,96483.50
2023-04-06T23:59:50.295Z,96500.63
